Terminal Aerodrome Forecast
Issued by NWS

Home | Current Version | Previous Version | Graphics & Text | Print | Product List | Glossary On
Versions: 1 2 3 4 5 6 7 8 9 10 11 12 13 14 15
000
FTUS42 KMHX 240231 AAA
TAFOAJ
TAF AMD
KOAJ 240231Z 2403/2424 21009KT P6SM -SHRA SCT007 OVC025
      TEMPO 2403/2405 5SM -SHRA OVC007
     FM240500 22007KT P6SM VCSH OVC008
     FM241400 20005KT P6SM OVC020
     FM241800 18007KT 6SM -SHRA OVC030
      AMD LTD TO CLD VIS AND WIND=

USA.gov is the U.S. government's official web portal to all federal, state and local government web resources and services.